Time;durP1;ratioP1;P1;durP2;ratioP2;P2;SDS_P1;SDS_P2;PMS_P1;PMS_P2;Temp;Humidity;BMP_temperature;BMP_pressure;BME280_temperature;BME280_humidity;BME280_pressure;Samples;Min_cycle;Max_cycle;Signal;HPM_P1;HPM_P2
2022/04/15 00:00:50;;;;;;;10.15;6.03;;;7.80;84.60;;;;;;5093741;28;20044;-78
2022/04/15 00:03:16;;;;;;;10.05;6.32;;;7.70;84.40;;;;;;5093794;28;20101;-78
2022/04/15 00:05:41;;;;;;;8.55;6.05;;;7.70;84.50;;;;;;5077066;28;20044;-78
2022/04/15 00:08:09;;;;;;;7.35;5.97;;;7.60;84.60;;;;;;5093709;28;20161;-77
2022/04/15 00:10:35;;;;;;;10.40;6.53;;;7.70;84.70;;;;;;5076639;28;20040;-78
2022/04/15 00:13:02;;;;;;;8.05;5.97;;;7.60;84.70;;;;;;5093151;28;20093;-77
2022/04/15 00:15:28;;;;;;;8.60;5.72;;;7.60;84.80;;;;;;5092762;28;20050;-77
2022/04/15 00:17:54;;;;;;;8.60;5.70;;;7.60;85.00;;;;;;5093151;28;20454;-78
2022/04/15 00:20:20;;;;;;;8.23;6.18;;;7.50;85.00;;;;;;5093283;28;20067;-78
2022/04/15 00:22:46;;;;;;;10.02;5.40;;;7.50;85.10;;;;;;5093088;28;20178;-77
2022/04/15 00:25:12;;;;;;;11.05;5.85;;;7.50;85.10;;;;;;5076213;28;20122;-77
2022/04/15 00:27:39;;;;;;;9.68;6.72;;;7.50;85.00;;;;;;5093262;28;20046;-77
2022/04/15 00:30:06;;;;;;;8.55;5.90;;;7.50;85.00;;;;;;5092877;28;20040;-77
2022/04/15 00:32:32;;;;;;;8.60;5.97;;;7.50;85.10;;;;;;5092859;28;20484;-78
2022/04/15 00:34:58;;;;;;;5.95;5.30;;;7.50;85.10;;;;;;5092871;28;20128;-78
2022/04/15 00:37:24;;;;;;;8.50;5.45;;;7.50;85.10;;;;;;5076047;28;20040;-77
2022/04/15 00:39:50;;;;;;;8.68;6.05;;;7.50;85.00;;;;;;5092775;28;20065;-78
2022/04/15 00:42:16;;;;;;;7.70;6.25;;;7.40;85.10;;;;;;5093024;28;20044;-78
2022/04/15 00:44:42;;;;;;;9.35;6.05;;;7.50;85.10;;;;;;5092713;28;20569;-79
2022/04/15 00:47:34;;;;;;;6.32;5.65;;;7.50;85.10;;;;;;5092665;28;20032;-77
2022/04/15 00:49:59;;;;;;;8.02;5.20;;;7.40;85.10;;;;;;5092527;28;20036;-78
2022/04/15 00:52:31;;;;;;;14.25;6.57;;;7.40;85.10;;;;;;5092591;28;20042;-78
2022/04/15 00:54:57;;;;;;;8.77;5.95;;;7.40;85.10;;;;;;5092452;28;20519;-78
2022/04/15 00:57:26;;;;;;;8.38;6.03;;;7.30;85.10;;;;;;5058954;28;20040;-76
2022/04/15 00:59:54;;;;;;;8.48;5.78;;;7.30;85.10;;;;;;5075734;28;20488;-77
2022/04/15 01:02:21;;;;;;;7.20;5.10;;;7.30;85.20;;;;;;5075453;28;20051;-77
2022/04/15 01:04:51;;;;;;;10.02;6.28;;;7.30;85.20;;;;;;5059072;28;20484;-78
2022/04/15 01:07:22;;;;;;;8.70;7.03;;;7.40;85.20;;;;;;5075371;28;20513;-77
2022/04/15 01:09:51;;;;;;;7.60;5.10;;;7.40;85.30;;;;;;5075702;28;20439;-77
2022/04/15 01:12:20;;;;;;;8.70;5.65;;;7.40;85.30;;;;;;5058918;28;20402;-77
2022/04/15 01:14:48;;;;;;;5.65;5.10;;;7.40;85.30;;;;;;5075151;28;20040;-78
2022/04/15 01:17:13;;;;;;;7.40;5.82;;;7.40;85.30;;;;;;5091955;28;20052;-77
2022/04/15 01:19:40;;;;;;;9.82;5.60;;;7.40;85.40;;;;;;5058479;28;20044;-78
2022/04/15 01:22:11;;;;;;;7.70;5.35;;;7.50;85.40;;;;;;5075221;28;20507;-77
2022/04/15 01:24:38;;;;;;;5.78;4.68;;;7.50;85.40;;;;;;5092072;28;20040;-77
2022/04/15 01:27:07;;;;;;;6.20;4.93;;;7.50;85.40;;;;;;5074282;28;20054;-77
2022/04/15 01:29:37;;;;;;;8.93;5.55;;;7.60;85.40;;;;;;5092092;28;20051;-78
2022/04/15 01:32:05;;;;;;;7.55;5.55;;;7.60;85.40;;;;;;5091984;28;20131;-78
2022/04/15 01:34:31;;;;;;;6.70;4.88;;;7.60;85.30;;;;;;5091859;28;20484;-78
2022/04/15 01:37:01;;;;;;;6.80;5.25;;;7.70;85.50;;;;;;5092221;28;20126;-77
2022/04/15 01:39:28;;;;;;;10.07;5.82;;;7.70;85.30;;;;;;5075238;28;20043;-77
2022/04/15 01:41:54;;;;;;;11.55;6.03;;;7.80;85.30;;;;;;5091781;28;20115;-77
2022/04/15 01:44:19;;;;;;;7.47;5.63;;;7.80;85.30;;;;;;5091796;28;20128;-77
2022/04/15 01:46:45;;;;;;;7.82;6.40;;;7.80;85.40;;;;;;5091795;28;20079;-77
2022/04/15 01:49:11;;;;;;;7.78;4.93;;;7.80;85.30;;;;;;5074875;28;20036;-77
2022/04/15 01:51:37;;;;;;;5.78;4.63;;;7.90;85.40;;;;;;5074869;28;20036;-78
2022/04/15 01:54:03;;;;;;;10.82;5.78;;;7.90;85.40;;;;;;5091527;28;20048;-77
2022/04/15 01:56:29;;;;;;;8.05;5.10;;;8.00;85.50;;;;;;5091971;28;20459;-77
2022/04/15 01:58:55;;;;;;;6.32;4.72;;;8.00;85.50;;;;;;5091591;28;20075;-77
2022/04/15 02:01:21;;;;;;;9.38;5.85;;;8.10;85.50;;;;;;5091559;28;20047;-76
2022/04/15 02:03:46;;;;;;;10.48;6.32;;;8.10;85.50;;;;;;5058063;28;20441;-77
2022/04/15 02:06:12;;;;;;;11.15;6.22;;;8.10;85.60;;;;;;5091600;28;20047;-78
2022/04/15 02:08:38;;;;;;;12.07;6.20;;;8.10;85.70;;;;;;5091488;28;20055;-78
2022/04/15 02:11:04;;;;;;;10.32;5.80;;;8.10;85.60;;;;;;5074734;28;20059;-77
2022/04/15 02:13:29;;;;;;;8.05;5.43;;;8.10;85.60;;;;;;5074525;28;20036;-78
2022/04/15 02:15:55;;;;;;;9.63;5.07;;;8.10;85.80;;;;;;5058002;28;20040;-78
2022/04/15 02:18:21;;;;;;;7.72;5.53;;;8.10;85.80;;;;;;5091418;28;20047;-78
2022/04/15 02:20:46;;;;;;;9.15;4.53;;;8.20;86.00;;;;;;5091373;28;20097;-77
2022/04/15 02:23:12;;;;;;;7.40;4.22;;;8.30;86.00;;;;;;5091758;28;20384;-77
2022/04/15 02:25:38;;;;;;;8.60;4.20;;;8.30;86.10;;;;;;5058157;28;20472;-79
2022/04/15 02:28:03;;;;;;;7.78;4.68;;;8.40;86.20;;;;;;5074804;28;20588;-78
2022/04/15 02:30:29;;;;;;;8.15;3.83;;;8.50;86.20;;;;;;5074644;28;20040;-78
2022/04/15 02:32:55;;;;;;;7.20;3.70;;;8.50;86.30;;;;;;5057749;28;20043;-78
2022/04/15 02:35:20;;;;;;;6.35;3.50;;;8.50;86.20;;;;;;5041212;28;20164;-79
2022/04/15 02:37:46;;;;;;;7.68;3.40;;;8.60;86.20;;;;;;5074389;28;20098;-77
2022/04/15 02:40:12;;;;;;;6.47;3.53;;;8.60;86.20;;;;;;5094766;28;20032;-78
2022/04/15 02:42:38;;;;;;;5.38;2.92;;;8.60;86.10;;;;;;5095015;28;20453;-78
2022/04/15 02:45:04;;;;;;;5.15;2.38;;;8.60;86.00;;;;;;5078177;28;20043;-78
2022/04/15 02:47:30;;;;;;;5.22;2.42;;;8.60;85.90;;;;;;5094959;28;20089;-78
2022/04/15 02:49:55;;;;;;;7.85;2.60;;;8.70;85.80;;;;;;5078337;28;20036;-78
2022/04/15 02:52:21;;;;;;;6.47;3.40;;;8.70;85.70;;;;;;5061312;28;20032;-78
2022/04/15 02:54:47;;;;;;;5.18;3.72;;;8.70;85.60;;;;;;5077887;28;20434;-79
2022/04/15 02:57:13;;;;;;;7.78;3.65;;;8.80;85.50;;;;;;5061257;28;20100;-78
2022/04/15 02:59:39;;;;;;;12.80;4.22;;;8.80;85.60;;;;;;5094912;28;20127;-78
2022/04/15 03:02:05;;;;;;;8.10;4.40;;;8.80;85.60;;;;;;5094684;28;20499;-78
2022/04/15 03:04:30;;;;;;;10.23;4.40;;;8.90;85.70;;;;;;5077782;28;20513;-77
2022/04/15 03:06:56;;;;;;;10.75;6.13;;;8.80;85.80;;;;;;5094740;28;20040;-78
2022/04/15 03:09:22;;;;;;;6.03;4.43;;;8.80;85.90;;;;;;5094392;28;20036;-78
2022/04/15 03:11:48;;;;;;;8.60;3.80;;;8.80;85.90;;;;;;5094551;28;20131;-77
2022/04/15 03:14:17;;;;;;;6.32;3.45;;;8.80;85.90;;;;;;5094518;28;20082;-78
2022/04/15 03:16:43;;;;;;;7.45;3.58;;;8.80;85.90;;;;;;5077299;28;20055;-78
2022/04/15 03:19:09;;;;;;;8.32;4.00;;;8.90;85.90;;;;;;5094256;28;20567;-78
2022/04/15 03:21:38;;;;;;;10.98;5.93;;;8.90;85.90;;;;;;5094283;28;20126;-78
2022/04/15 03:24:04;;;;;;;11.43;5.63;;;8.90;85.80;;;;;;5077371;28;20039;-78
2022/04/15 03:26:30;;;;;;;8.95;5.32;;;8.80;85.80;;;;;;5094291;28;20040;-78
2022/04/15 03:28:55;;;;;;;13.23;5.30;;;8.90;85.90;;;;;;5094414;28;20440;-76
2022/04/15 03:31:21;;;;;;;11.07;5.97;;;8.90;85.90;;;;;;5060819;28;20370;-78
2022/04/15 03:33:47;;;;;;;10.90;5.95;;;8.90;86.10;;;;;;5093986;28;20394;-77
2022/04/15 03:36:13;;;;;;;10.02;5.65;;;8.90;86.00;;;;;;5093998;28;20040;-78
2022/04/15 03:38:40;;;;;;;11.15;5.90;;;9.00;86.10;;;;;;5077158;28;20044;-78
2022/04/15 03:41:05;;;;;;;6.13;4.22;;;8.90;86.10;;;;;;5094095;28;20048;-78
2022/04/15 03:43:32;;;;;;;5.82;3.25;;;8.90;86.00;;;;;;5094112;28;20392;-78
2022/04/15 03:45:57;;;;;;;6.40;3.92;;;8.90;86.10;;;;;;5077278;28;20115;-78
2022/04/15 03:48:23;;;;;;;5.88;3.90;;;8.80;85.80;;;;;;5076863;28;20081;-78
2022/04/15 03:50:49;;;;;;;5.50;3.90;;;8.80;85.80;;;;;;5076055;28;20040;-78
2022/04/15 03:53:14;;;;;;;8.50;4.72;;;8.90;85.60;;;;;;5093724;28;20527;-78
2022/04/15 03:55:40;;;;;;;4.60;3.63;;;8.90;85.60;;;;;;5060200;28;20032;-79
2022/04/15 03:58:06;;;;;;;6.53;3.75;;;8.90;85.40;;;;;;5093878;28;20039;-78
2022/04/15 04:00:31;;;;;;;8.02;4.18;;;8.90;85.20;;;;;;5076894;28;20439;-78
2022/04/15 04:02:57;;;;;;;6.35;4.30;;;8.80;85.10;;;;;;5076739;28;20504;-77
2022/04/15 04:05:24;;;;;;;6.65;3.78;;;8.90;85.10;;;;;;5076792;28;20058;-77
2022/04/15 04:07:50;;;;;;;7.88;3.80;;;8.80;85.10;;;;;;5060243;28;20119;-77
2022/04/15 04:10:16;;;;;;;5.50;4.22;;;8.90;85.10;;;;;;5076484;28;20480;-78
2022/04/15 04:12:44;;;;;;;6.25;3.42;;;8.90;85.10;;;;;;5093246;28;20085;-78
2022/04/15 04:15:11;;;;;;;6.03;4.28;;;8.80;84.90;;;;;;5093556;28;20434;-77
2022/04/15 04:17:37;;;;;;;6.32;4.80;;;8.90;84.90;;;;;;5093066;28;20059;-78
2022/04/15 04:20:08;;;;;;;8.13;5.15;;;8.90;84.90;;;;;;5076171;28;20036;-77
2022/04/15 04:22:36;;;;;;;9.35;4.57;;;8.90;84.90;;;;;;5076561;28;20093;-78
2022/04/15 04:25:04;;;;;;;7.63;4.70;;;8.90;84.80;;;;;;5093070;28;20048;-77
2022/04/15 04:27:30;;;;;;;7.22;5.28;;;8.90;85.00;;;;;;5092894;28;20128;-78
2022/04/15 04:29:56;;;;;;;6.97;4.88;;;8.90;84.90;;;;;;5092972;28;20127;-78
2022/04/15 04:32:21;;;;;;;7.82;5.43;;;8.80;85.00;;;;;;5076078;28;20196;-78
2022/04/15 04:34:47;;;;;;;9.52;5.60;;;8.90;85.10;;;;;;5075983;28;20389;-78
2022/04/15 04:37:13;;;;;;;9.10;5.40;;;8.90;85.20;;;;;;5093131;28;20036;-77
2022/04/15 04:39:39;;;;;;;9.05;6.57;;;8.90;85.00;;;;;;5059563;28;20051;-77
2022/04/15 04:42:06;;;;;;;9.82;7.25;;;8.90;85.20;;;;;;5059287;28;20491;-78
2022/04/15 04:44:32;;;;;;;11.60;7.90;;;8.90;85.00;;;;;;5092754;28;20044;-78
2022/04/15 04:46:59;;;;;;;13.70;8.75;;;8.80;85.20;;;;;;5092936;28;20126;-78
2022/04/15 04:49:25;;;;;;;17.83;11.88;;;8.80;85.40;;;;;;5092617;28;20044;-79
2022/04/15 04:51:51;;;;;;;17.30;10.55;;;8.90;85.40;;;;;;5075686;28;20040;-78
2022/04/15 04:54:16;;;;;;;15.63;11.13;;;8.90;85.70;;;;;;5092499;28;20145;-78
2022/04/15 04:56:42;;;;;;;14.68;11.23;;;8.80;85.70;;;;;;5075719;28;20504;-78
2022/04/15 04:59:08;;;;;;;13.90;10.68;;;8.80;85.80;;;;;;5092396;28;20047;-77
2022/04/15 05:01:33;;;;;;;12.45;8.68;;;8.90;86.00;;;;;;5075275;28;20501;-78
2022/04/15 05:03:59;;;;;;;12.27;8.45;;;8.80;86.20;;;;;;5075280;28;20377;-78
2022/04/15 05:06:25;;;;;;;11.25;9.32;;;8.80;86.00;;;;;;5058914;28;20527;-78
2022/04/15 05:08:51;;;;;;;13.23;8.68;;;8.80;85.80;;;;;;5092292;28;20046;-78
2022/04/15 05:11:17;;;;;;;10.07;7.93;;;8.70;85.90;;;;;;5092441;28;20131;-77
2022/04/15 05:13:42;;;;;;;9.25;7.25;;;8.70;85.90;;;;;;5075444;28;20047;-78
2022/04/15 05:16:08;;;;;;;10.40;7.53;;;8.70;85.90;;;;;;5092201;28;20048;-78
2022/04/15 05:18:34;;;;;;;9.48;8.48;;;8.70;85.80;;;;;;5075077;28;20063;-78
2022/04/15 05:21:01;;;;;;;9.75;6.88;;;8.70;85.80;;;;;;5075156;28;20078;-78
2022/04/15 05:23:26;;;;;;;9.15;6.75;;;8.70;85.80;;;;;;5092120;28;20040;-77
2022/04/15 05:25:52;;;;;;;7.65;6.45;;;8.70;85.90;;;;;;5091937;28;20047;-77
2022/04/15 05:28:18;;;;;;;10.15;6.75;;;8.70;85.70;;;;;;5092218;28;20043;-78
2022/04/15 05:30:44;;;;;;;8.23;6.85;;;8.70;85.80;;;;;;5075274;28;20476;-78
2022/04/15 05:33:09;;;;;;;8.13;5.90;;;8.60;85.70;;;;;;5092013;28;20036;-77
2022/04/15 05:35:35;;;;;;;6.28;5.68;;;8.70;85.80;;;;;;5083179;28;20040;-78
2022/04/15 05:38:01;;;;;;;5.97;4.88;;;8.70;85.70;;;;;;5085616;28;20028;-77
2022/04/15 05:40:28;;;;;;;5.63;4.47;;;8.70;85.80;;;;;;5106372;28;20042;-76
2022/04/15 05:42:54;;;;;;;7.18;5.38;;;8.70;85.70;;;;;;5092172;28;20054;-78
2022/04/15 05:45:20;;;;;;;4.95;4.13;;;8.70;85.60;;;;;;5085630;28;20050;-78
2022/04/15 05:47:46;;;;;;;6.72;3.60;;;8.70;85.60;;;;;;5083963;28;20415;-78
2022/04/15 05:50:11;;;;;;;5.30;4.80;;;8.60;85.50;;;;;;5059595;28;20096;-77
2022/04/15 05:52:37;;;;;;;5.63;4.15;;;8.60;85.20;;;;;;5058276;28;20047;-76
2022/04/15 05:55:03;;;;;;;7.70;4.50;;;8.60;85.10;;;;;;5074755;28;20152;-77
2022/04/15 05:57:29;;;;;;;5.60;4.03;;;8.60;85.20;;;;;;5074842;28;20541;-78
2022/04/15 05:59:55;;;;;;;5.28;4.25;;;8.60;85.10;;;;;;5058167;28;20036;-79
2022/04/15 06:02:21;;;;;;;6.53;3.60;;;8.60;85.10;;;;;;5074864;28;20385;-79
2022/04/15 06:04:48;;;;;;;4.53;3.65;;;8.70;85.00;;;;;;5091670;28;20488;-77
2022/04/15 06:07:13;;;;;;;4.65;4.15;;;8.60;84.90;;;;;;5075173;28;20452;-79
2022/04/15 06:09:39;;;;;;;5.20;4.20;;;8.70;84.80;;;;;;5074833;28;20075;-78
2022/04/15 06:12:05;;;;;;;5.68;4.25;;;8.80;84.60;;;;;;5091593;28;20078;-78
2022/04/15 06:14:33;;;;;;;3.10;2.80;;;8.70;84.60;;;;;;5094018;28;20044;-77
2022/04/15 06:16:59;;;;;;;2.35;2.15;;;8.80;84.20;;;;;;5062324;28;20044;-79
2022/04/15 06:19:25;;;;;;;4.50;2.55;;;8.70;84.00;;;;;;5095380;28;20492;-78
2022/04/15 06:21:51;;;;;;;3.33;2.80;;;8.80;83.80;;;;;;5078580;28;20040;-77
2022/04/15 06:24:18;;;;;;;4.22;3.25;;;8.80;83.70;;;;;;5078709;28;20044;-77
2022/04/15 06:26:44;;;;;;;3.70;2.72;;;8.80;83.60;;;;;;5062051;28;20043;-77
2022/04/15 06:29:09;;;;;;;3.78;2.65;;;8.80;83.50;;;;;;5078359;28;20039;-77
2022/04/15 06:31:35;;;;;;;3.47;3.17;;;8.80;83.60;;;;;;5095265;28;20046;-78
2022/04/15 06:34:01;;;;;;;3.90;2.97;;;8.80;83.70;;;;;;5078368;28;20044;-77
2022/04/15 06:36:26;;;;;;;5.30;2.70;;;8.90;83.70;;;;;;5095293;28;20093;-79
2022/04/15 06:38:52;;;;;;;4.50;2.65;;;8.90;83.70;;;;;;5078211;28;20047;-77
2022/04/15 06:41:17;;;;;;;4.43;2.80;;;8.90;83.50;;;;;;5077746;28;20036;-79
2022/04/15 06:43:43;;;;;;;2.95;2.65;;;8.90;83.30;;;;;;5060763;28;20051;-78
2022/04/15 06:46:09;;;;;;;5.35;3.75;;;8.90;83.30;;;;;;5078690;28;20043;-77
2022/04/15 06:48:35;;;;;;;6.82;4.57;;;8.90;83.20;;;;;;5078035;28;20130;-79
2022/04/15 06:51:02;;;;;;;5.72;5.05;;;8.80;83.30;;;;;;5094915;28;20044;-78
2022/04/15 06:53:28;;;;;;;5.85;5.18;;;8.80;83.70;;;;;;5094838;28;20051;-76
2022/04/15 06:55:54;;;;;;;5.95;5.30;;;8.70;83.70;;;;;;5078186;28;20032;-78
2022/04/15 06:58:19;;;;;;;6.82;4.82;;;8.70;84.00;;;;;;5077913;28;20043;-78
2022/04/15 07:00:46;;;;;;;6.43;5.35;;;8.70;84.10;;;;;;5061111;28;20043;-77
2022/04/15 07:03:12;;;;;;;7.40;5.22;;;8.70;84.30;;;;;;5077851;28;20051;-77
2022/04/15 07:05:43;;;;;;;6.05;5.05;;;8.70;84.20;;;;;;5077843;28;20130;-77
2022/04/15 07:08:09;;;;;;;8.23;7.00;;;8.60;84.30;;;;;;5077799;28;20044;-79
2022/04/15 07:10:36;;;;;;;7.22;6.03;;;8.60;84.30;;;;;;5094523;28;20050;-77
2022/04/15 07:13:02;;;;;;;8.57;6.55;;;8.70;84.30;;;;;;5094671;28;20383;-80
2022/04/15 07:15:29;;;;;;;10.23;8.23;;;8.70;84.40;;;;;;5094754;28;20094;-79
2022/04/15 07:17:56;;;;;;;11.40;8.63;;;8.70;84.40;;;;;;5094282;28;20488;-78
2022/04/15 07:20:22;;;;;;;12.20;8.68;;;8.80;84.50;;;;;;5094277;28;20054;-79
2022/04/15 07:22:55;;;;;;;11.70;8.65;;;8.80;84.40;;;;;;5094325;28;20072;-78
2022/04/15 07:25:20;;;;;;;8.63;7.32;;;8.80;84.50;;;;;;5076997;28;20101;-80
2022/04/15 07:27:46;;;;;;;14.48;8.40;;;8.80;84.50;;;;;;5095273;28;20048;-78
2022/04/15 07:30:12;;;;;;;12.38;9.45;;;8.80;84.50;;;;;;5060573;28;20054;-78
2022/04/15 07:32:37;;;;;;;13.00;8.98;;;8.90;84.40;;;;;;5094159;28;20047;-78
2022/04/15 07:35:03;;;;;;;12.60;9.48;;;8.90;84.20;;;;;;5077143;28;20040;-78
2022/04/15 07:37:29;;;;;;;13.10;10.38;;;8.90;84.30;;;;;;5094037;28;20127;-79
2022/04/15 07:39:55;;;;;;;12.63;9.90;;;8.90;84.10;;;;;;5094234;28;20119;-77
2022/04/15 07:42:20;;;;;;;11.60;8.85;;;9.00;84.10;;;;;;5060714;28;20498;-79
2022/04/15 07:44:46;;;;;;;14.38;10.70;;;9.00;84.00;;;;;;5077137;28;20044;-78
2022/04/15 07:47:12;;;;;;;13.80;10.07;;;9.00;83.70;;;;;;5094130;28;20040;-79
2022/04/15 07:49:38;;;;;;;14.32;9.95;;;9.10;83.60;;;;;;5093853;28;20713;-78
2022/04/15 07:52:08;;;;;;;13.45;9.88;;;9.10;83.40;;;;;;5093761;28;20067;-78
2022/04/15 07:54:34;;;;;;;14.60;10.23;;;9.10;83.40;;;;;;5093732;28;20036;-78
2022/04/15 07:57:01;;;;;;;14.50;10.10;;;9.20;83.20;;;;;;5093932;28;20039;-78
2022/04/15 07:59:30;;;;;;;16.90;11.13;;;9.50;83.20;;;;;;5076807;28;20089;-79
2022/04/15 08:01:56;;;;;;;13.73;9.60;;;9.60;83.00;;;;;;5093534;28;20510;-78
2022/04/15 08:04:22;;;;;;;12.60;9.70;;;9.70;82.80;;;;;;5093557;28;20124;-78
2022/04/15 08:06:48;;;;;;;16.05;9.75;;;9.80;82.50;;;;;;5060304;28;20131;-78
2022/04/15 08:09:14;;;;;;;12.07;8.90;;;9.80;82.00;;;;;;5076481;28;20089;-77
2022/04/15 08:11:39;;;;;;;14.40;9.75;;;9.70;81.60;;;;;;5043459;28;20065;-79
2022/04/15 08:14:05;;;;;;;15.88;11.15;;;9.70;81.40;;;;;;5076441;28;20055;-79
2022/04/15 08:16:31;;;;;;;12.52;9.07;;;9.70;81.10;;;;;;5078940;28;20036;-79
2022/04/15 08:18:56;;;;;;;16.02;9.68;;;9.70;80.70;;;;;;5063438;28;20043;-78
2022/04/15 08:21:23;;;;;;;11.55;9.13;;;9.70;80.90;;;;;;5079987;28;20035;-77
2022/04/15 08:23:49;;;;;;;11.85;8.40;;;9.80;81.10;;;;;;5063049;28;20100;-78
2022/04/15 08:26:15;;;;;;;13.90;9.27;;;9.80;81.20;;;;;;5096510;28;20039;-80
2022/04/15 08:28:41;;;;;;;12.00;7.82;;;9.90;81.30;;;;;;5063318;28;20050;-79
2022/04/15 08:31:07;;;;;;;9.10;7.60;;;9.90;81.20;;;;;;5096182;28;20100;-79
2022/04/15 08:33:34;;;;;;;10.10;8.25;;;10.00;80.90;;;;;;5079866;28;20043;-79
2022/04/15 08:36:00;;;;;;;12.70;8.05;;;10.00;80.90;;;;;;5079104;28;20080;-78
2022/04/15 08:38:26;;;;;;;11.98;7.57;;;10.10;80.90;;;;;;5079155;28;20196;-78
2022/04/15 08:40:56;;;;;;;10.93;6.85;;;10.20;80.80;;;;;;5062894;28;20118;-78
2022/04/15 08:43:24;;;;;;;11.05;8.15;;;10.20;80.10;;;;;;5079755;28;20065;-80
2022/04/15 08:45:50;;;;;;;11.15;7.30;;;10.30;80.20;;;;;;5079181;28;20220;-79
2022/04/15 08:48:16;;;;;;;12.45;7.57;;;10.40;80.10;;;;;;5079062;28;20075;-79
2022/04/15 08:50:42;;;;;;;10.05;7.20;;;10.40;80.10;;;;;;5079494;28;20395;-78
2022/04/15 08:53:09;;;;;;;10.82;8.05;;;10.50;80.00;;;;;;5079005;28;20053;-80
2022/04/15 08:55:34;;;;;;;9.30;6.97;;;10.50;79.80;;;;;;5079042;28;20041;-80
2022/04/15 08:58:00;;;;;;;8.98;6.90;;;10.50;79.80;;;;;;5079019;28;20205;-79
2022/04/15 09:00:27;;;;;;;7.93;6.18;;;10.50;79.50;;;;;;5096252;28;20039;-78
2022/04/15 09:02:55;;;;;;;8.52;6.10;;;10.50;79.50;;;;;;5095850;28;20046;-78
2022/04/15 09:05:25;;;;;;;10.20;5.88;;;10.50;79.00;;;;;;5095814;28;20047;-78
2022/04/15 09:08:12;;;;;;;8.13;5.40;;;10.50;79.10;;;;;;5095723;28;20040;-78
2022/04/15 09:10:41;;;;;;;13.85;5.50;;;10.50;79.00;;;;;;5078738;28;20376;-79
2022/04/15 09:13:31;;;;;;;6.93;5.20;;;10.60;79.10;;;;;;5079509;28;20051;-78
2022/04/15 09:15:59;;;;;;;7.30;5.60;;;10.70;78.70;;;;;;5080163;28;20104;-79
2022/04/15 09:18:31;;;;;;;7.72;5.93;;;10.80;78.50;;;;;;5095349;28;20108;-78
2022/04/15 09:21:21;;;;;;;10.52;5.72;;;10.80;78.00;;;;;;5095473;28;20059;-79
2022/04/15 09:23:51;;;;;;;6.60;5.05;;;11.00;78.00;;;;;;5073626;28;20055;-79
2022/04/15 09:26:17;;;;;;;7.15;5.18;;;11.00;77.80;;;;;;5095605;28;20043;-79
2022/04/15 09:28:43;;;;;;;7.38;4.70;;;11.00;77.50;;;;;;5095644;28;20407;-80
2022/04/15 09:31:13;;;;;;;6.50;4.28;;;11.10;77.40;;;;;;5078463;28;20131;-79
2022/04/15 09:33:52;;;;;;;6.45;4.72;;;11.20;77.10;;;;;;5078618;28;20035;-80
2022/04/15 09:36:34;;;;;;;8.55;5.22;;;11.30;76.70;;;;;;5095663;28;20072;-79
2022/04/15 09:39:14;;;;;;;11.15;5.75;;;11.40;76.40;;;;;;5095188;28;20504;-78
2022/04/15 09:41:48;;;;;;;7.00;4.32;;;11.60;76.30;;;;;;5078390;28;20128;-79
2022/04/15 09:44:13;;;;;;;6.55;4.55;;;12.00;76.00;;;;;;5095363;28;20050;-79
2022/04/15 09:46:44;;;;;;;6.20;4.40;;;12.50;75.90;;;;;;5078369;28;20044;-79
2022/04/15 09:49:11;;;;;;;9.27;4.45;;;12.90;75.00;;;;;;5077936;28;20043;-80
2022/04/15 09:51:44;;;;;;;10.93;4.78;;;13.10;74.20;;;;;;5078691;28;20458;-79
2022/04/15 09:54:31;;;;;;;8.80;4.75;;;13.00;72.30;;;;;;5078629;28;20112;-80
2022/04/15 09:56:59;;;;;;;6.22;4.25;;;12.90;71.30;;;;;;5095541;28;20040;-79
2022/04/15 09:59:29;;;;;;;5.88;4.68;;;12.80;70.90;;;;;;5095498;28;20476;-79
2022/04/15 10:02:04;;;;;;;6.88;4.50;;;12.60;71.00;;;;;;5079040;28;20046;-80
2022/04/15 10:04:30;;;;;;;5.93;4.03;;;12.50;71.20;;;;;;5078444;28;20071;-80
2022/04/15 10:06:56;;;;;;;4.63;4.05;;;12.50;71.90;;;;;;5095857;28;20130;-80
2022/04/15 10:09:22;;;;;;;6.95;4.68;;;12.50;72.20;;;;;;5095226;28;20555;-80
2022/04/15 10:11:48;;;;;;;7.93;5.00;;;12.50;72.10;;;;;;5062006;28;20412;-78
2022/04/15 10:14:17;;;;;;;7.60;5.07;;;12.50;71.40;;;;;;5078731;28;20067;-79
2022/04/15 10:16:43;;;;;;;6.28;4.63;;;12.50;71.90;;;;;;5078384;28;20050;-78
2022/04/15 10:19:10;;;;;;;6.68;5.22;;;12.50;72.10;;;;;;5095957;28;20047;-77
2022/04/15 10:21:39;;;;;;;7.78;4.78;;;12.50;72.20;;;;;;5079008;28;20035;-78
2022/04/15 10:24:08;;;;;;;5.95;4.50;;;12.70;71.40;;;;;;5095183;28;20453;-78
2022/04/15 10:26:45;;;;;;;7.25;4.45;;;12.90;71.50;;;;;;5095140;28;20059;-78
2022/04/15 10:29:11;;;;;;;5.32;4.07;;;13.10;71.10;;;;;;5094744;28;20414;-79
2022/04/15 10:31:46;;;;;;;6.00;3.40;;;13.10;70.70;;;;;;5077764;28;20043;-79
2022/04/15 10:34:19;;;;;;;4.78;3.92;;;13.40;69.50;;;;;;5094994;28;20071;-79
2022/04/15 10:36:53;;;;;;;4.93;3.80;;;13.50;68.60;;;;;;5078295;28;20047;-79
2022/04/15 10:39:24;;;;;;;6.05;3.80;;;13.40;68.10;;;;;;5094980;28;20036;-80
2022/04/15 10:42:19;;;;;;;8.75;4.70;;;13.30;68.30;;;;;;5077895;28;20042;-80
2022/04/15 10:44:45;;;;;;;4.32;3.90;;;13.20;68.20;;;;;;5078553;28;20075;-79
2022/04/15 10:47:17;;;;;;;6.25;4.45;;;13.20;69.10;;;;;;5095214;28;20073;-78
2022/04/15 10:50:06;;;;;;;5.53;4.35;;;13.60;69.00;;;;;;5082128;28;20039;-78
2022/04/15 10:52:36;;;;;;;5.35;4.35;;;14.00;67.70;;;;;;5096816;28;20051;-80
2022/04/15 10:55:12;;;;;;;6.32;3.92;;;14.40;67.60;;;;;;5095121;28;20047;-79
2022/04/15 10:57:47;;;;;;;4.38;3.92;;;14.80;66.40;;;;;;5078310;28;20044;-79
2022/04/15 11:03:02;;;;;;;6.65;4.70;;;15.00;65.40;;;;;;5098354;28;20133;-80
2022/04/15 11:05:30;;;;;;;5.78;4.28;;;14.80;65.00;;;;;;5098446;28;20036;-80
2022/04/15 11:08:10;;;;;;;7.30;4.28;;;14.60;64.80;;;;;;5098282;28;20484;-78
2022/04/15 11:11:03;;;;;;;6.55;4.53;;;14.40;64.60;;;;;;5098127;28;20039;-79
2022/04/15 11:13:59;;;;;;;7.60;4.85;;;14.10;65.10;;;;;;5080898;28;20084;-80
2022/04/15 11:16:40;;;;;;;6.88;5.22;;;13.90;66.20;;;;;;5098318;28;20147;-78
2022/04/15 11:19:07;;;;;;;5.82;4.63;;;13.80;66.60;;;;;;5097985;28;20096;-79
2022/04/15 11:21:36;;;;;;;7.25;5.25;;;13.80;67.00;;;;;;5081178;28;20044;-78
2022/04/15 11:24:04;;;;;;;6.57;4.50;;;13.60;67.30;;;;;;5081195;28;20043;-78
2022/04/15 11:26:31;;;;;;;5.53;4.63;;;13.50;67.50;;;;;;5080862;28;20054;-78
2022/04/15 11:28:58;;;;;;;7.30;5.00;;;13.50;68.10;;;;;;5097384;28;20051;-77
2022/04/15 11:31:38;;;;;;;8.82;5.32;;;13.40;68.50;;;;;;5080777;28;20039;-76
2022/04/15 11:34:07;;;;;;;8.88;5.40;;;13.30;69.00;;;;;;5063794;28;20077;-77
2022/04/15 11:36:35;;;;;;;7.68;5.13;;;13.20;68.70;;;;;;5097721;28;20039;-76
2022/04/15 11:39:04;;;;;;;8.35;5.47;;;13.10;68.60;;;;;;5097327;28;20053;-76
2022/04/15 11:41:30;;;;;;;7.88;5.60;;;13.00;69.10;;;;;;5097263;28;20042;-76
2022/04/15 11:43:59;;;;;;;6.13;5.53;;;13.00;69.20;;;;;;5097283;28;20479;-77
2022/04/15 11:46:25;;;;;;;11.50;5.88;;;12.90;69.30;;;;;;5080464;28;20051;-78
2022/04/15 11:48:51;;;;;;;10.43;6.30;;;12.80;69.80;;;;;;5097295;28;20038;-78
2022/04/15 11:51:22;;;;;;;8.00;5.93;;;12.80;70.40;;;;;;5097135;28;20036;-78
2022/04/15 11:53:49;;;;;;;10.80;6.38;;;12.70;70.90;;;;;;5097287;28;20079;-78
2022/04/15 11:56:16;;;;;;;7.82;6.47;;;12.70;70.60;;;;;;5097143;28;20052;-78
2022/04/15 11:58:43;;;;;;;9.73;6.22;;;12.70;70.30;;;;;;5080320;28;20040;-79
2022/04/15 12:01:09;;;;;;;9.63;5.78;;;12.70;69.60;;;;;;5079982;28;20096;-78
2022/04/15 12:03:39;;;;;;;9.13;5.70;;;12.70;69.60;;;;;;5097026;28;20130;-79
2022/04/15 12:06:06;;;;;;;8.82;5.80;;;12.80;69.60;;;;;;5096842;28;20039;-77
2022/04/15 12:08:31;;;;;;;9.35;5.85;;;12.80;69.40;;;;;;5096929;28;20051;-78
2022/04/15 12:10:58;;;;;;;9.63;6.28;;;12.80;69.80;;;;;;5096060;28;20057;-78
2022/04/15 12:13:23;;;;;;;8.93;7.20;;;12.80;70.30;;;;;;5096975;28;20043;-77
2022/04/15 12:15:49;;;;;;;9.63;6.20;;;12.80;70.30;;;;;;5096665;28;20572;-78
2022/04/15 12:18:16;;;;;;;12.50;6.45;;;12.80;70.20;;;;;;5079703;28;20051;-77
2022/04/15 12:20:43;;;;;;;12.32;6.90;;;12.80;70.30;;;;;;5096714;28;20073;-77
2022/04/15 12:23:16;;;;;;;9.88;6.43;;;12.90;70.00;;;;;;5079597;28;20055;-78
2022/04/15 12:31:32;;;;;;;9.20;6.50;;;12.90;70.60;;;;;;5096507;28;19916;-77
2022/04/15 12:34:02;;;;;;;7.13;5.70;;;12.90;70.40;;;;;;5096294;28;20039;-77
2022/04/15 12:36:46;;;;;;;8.90;6.07;;;12.90;70.00;;;;;;5096674;28;20036;-77
2022/04/15 12:39:14;;;;;;;11.85;6.28;;;12.90;69.50;;;;;;5079578;28;20035;-78
2022/04/15 12:41:49;;;;;;;9.70;6.97;;;12.90;70.10;;;;;;5079345;28;20042;-77
2022/04/15 12:44:23;;;;;;;12.32;5.90;;;12.90;70.40;;;;;;5096617;28;20455;-78
2022/04/15 12:47:00;;;;;;;8.65;5.82;;;12.90;70.10;;;;;;5096244;28;20056;-77
2022/04/15 12:49:33;;;;;;;8.57;6.40;;;12.90;70.30;;;;;;5079142;28;20042;-77
2022/04/15 12:52:15;;;;;;;10.32;5.90;;;12.90;70.30;;;;;;5079192;28;20040;-77
2022/04/15 12:55:02;;;;;;;8.68;5.68;;;13.00;69.90;;;;;;5078958;28;20066;-77
2022/04/15 12:57:41;;;;;;;9.25;6.40;;;13.00;70.10;;;;;;5096197;28;20434;-78
2022/04/15 13:00:11;;;;;;;14.57;7.00;;;13.00;70.40;;;;;;5079128;28;20502;-77
2022/04/15 13:02:38;;;;;;;10.60;7.38;;;13.00;70.00;;;;;;5095855;28;20035;-77